Time;durP1;ratioP1;P1;durP2;ratioP2;P2;SDS_P1;SDS_P2;PMS_P1;PMS_P2;Temp;Humidity;BMP_temperature;BMP_pressure;BME280_temperature;BME280_humidity;BME280_pressure;Samples;Min_cycle;Max_cycle;Signal;HPM_P1;HPM_P2
2021/07/21 00:00:49;;;;;;;14.97;12.20;;;20.70;99.90;;;;;;6271185;28;20557;-60
2021/07/21 00:03:53;;;;;;;12.40;11.10;;;20.60;99.90;;;;;;6276907;28;20718;-59
2021/07/21 00:06:56;;;;;;;11.97;10.77;;;20.60;99.90;;;;;;6287334;28;20569;-58
2021/07/21 00:10:02;;;;;;;13.40;10.67;;;20.60;99.90;;;;;;6286382;28;20229;-58
2021/07/21 00:16:32;;;;;;;12.73;11.43;;;20.40;99.90;;;;;;6288940;28;20236;-59
2021/07/21 00:22:58;;;;;;;12.00;10.80;;;20.30;99.90;;;;;;6258326;28;20289;-59
2021/07/21 00:26:03;;;;;;;13.17;11.87;;;20.30;99.90;;;;;;6292473;28;20219;-59
2021/07/21 00:29:06;;;;;;;12.73;11.33;;;20.30;99.90;;;;;;6286598;28;20231;-59
2021/07/21 00:32:09;;;;;;;12.60;11.17;;;20.30;99.90;;;;;;6264369;28;20282;-60
2021/07/21 00:35:16;;;;;;;12.00;10.80;;;20.20;99.90;;;;;;6267539;28;20195;-59
2021/07/21 00:38:19;;;;;;;12.33;11.10;;;20.20;99.90;;;;;;6268002;28;20216;-59
2021/07/21 00:41:24;;;;;;;13.10;10.47;;;20.10;99.90;;;;;;6263387;28;20216;-59
2021/07/21 00:44:27;;;;;;;12.83;11.53;;;20.20;99.90;;;;;;6262035;28;20216;-59
2021/07/21 00:47:30;;;;;;;12.67;11.47;;;20.10;99.90;;;;;;6262343;28;20668;-60
2021/07/21 00:50:34;;;;;;;13.30;11.90;;;20.00;99.90;;;;;;6262919;28;20227;-66
2021/07/21 00:53:37;;;;;;;13.60;12.20;;;19.90;99.90;;;;;;6262410;28;20232;-67
2021/07/21 00:56:41;;;;;;;12.83;11.47;;;19.90;99.90;;;;;;6263161;28;20239;-67
2021/07/21 00:59:45;;;;;;;14.63;13.13;;;19.90;99.90;;;;;;6263076;28;20223;-66
2021/07/21 01:02:49;;;;;;;15.27;12.70;;;19.80;99.90;;;;;;6263182;28;20240;-67
2021/07/21 01:05:52;;;;;;;12.97;11.57;;;19.80;99.90;;;;;;6263012;28;20220;-67
2021/07/21 01:08:56;;;;;;;13.77;12.27;;;19.70;99.90;;;;;;6262957;28;20235;-67
2021/07/21 01:12:05;;;;;;;12.13;10.13;;;19.70;99.90;;;;;;6262657;28;20243;-66
2021/07/21 01:15:11;;;;;;;15.33;12.93;;;19.70;99.90;;;;;;6262820;28;20678;-67
2021/07/21 01:18:21;;;;;;;14.43;12.63;;;19.60;99.90;;;;;;6263876;28;20713;-67
2021/07/21 01:21:48;;;;;;;14.87;12.77;;;19.50;99.90;;;;;;6253374;28;20243;-66
2021/07/21 01:25:04;;;;;;;13.10;11.07;;;19.40;99.90;;;;;;6251648;28;20609;-67
2021/07/21 01:28:09;;;;;;;14.90;12.47;;;19.40;99.90;;;;;;6262422;28;20286;-67
2021/07/21 01:31:16;;;;;;;11.73;10.50;;;19.30;99.90;;;;;;6261989;28;20594;-66
2021/07/21 01:34:22;;;;;;;13.13;11.73;;;19.30;99.90;;;;;;6262508;28;20306;-67
2021/07/21 01:37:26;;;;;;;12.13;10.83;;;19.40;99.90;;;;;;6262785;28;20231;-66
2021/07/21 01:40:35;;;;;;;13.20;11.87;;;19.30;99.90;;;;;;6262284;28;20224;-67
2021/07/21 01:43:42;;;;;;;12.67;10.73;;;19.30;99.90;;;;;;6261707;28;20232;-67
2021/07/21 01:46:49;;;;;;;14.50;11.37;;;19.30;99.90;;;;;;6261747;28;20485;-67
2021/07/21 01:49:54;;;;;;;15.07;12.40;;;19.20;99.90;;;;;;6263858;28;20223;-67
2021/07/21 01:52:59;;;;;;;13.40;11.27;;;19.20;99.90;;;;;;6261948;28;20227;-67
2021/07/21 01:56:04;;;;;;;14.37;11.67;;;19.10;99.90;;;;;;6261605;28;20746;-67
2021/07/21 01:59:10;;;;;;;13.60;12.17;;;19.10;99.90;;;;;;6261743;28;20224;-67
2021/07/21 02:02:14;;;;;;;12.13;10.93;;;19.00;99.90;;;;;;6260842;28;20219;-66
2021/07/21 02:05:20;;;;;;;14.07;11.30;;;19.00;99.90;;;;;;6261990;28;20231;-66
2021/07/21 02:08:24;;;;;;;14.00;11.23;;;19.00;99.90;;;;;;6261996;28;20200;-67
2021/07/21 02:11:27;;;;;;;13.27;11.87;;;18.90;99.90;;;;;;6261544;28;20442;-66
2021/07/21 02:14:33;;;;;;;14.90;12.00;;;18.80;99.90;;;;;;6261510;28;20251;-66
2021/07/21 02:17:40;;;;;;;13.77;10.73;;;18.80;99.90;;;;;;6261605;28;20235;-67
2021/07/21 02:20:44;;;;;;;13.30;11.60;;;18.80;99.90;;;;;;6261398;28;20223;-67
2021/07/21 02:23:49;;;;;;;13.60;12.20;;;18.70;99.90;;;;;;6256792;28;20466;-66
2021/07/21 02:26:52;;;;;;;12.93;11.63;;;18.60;99.90;;;;;;6261139;28;20463;-66
2021/07/21 02:29:57;;;;;;;12.60;11.30;;;18.60;99.90;;;;;;6261218;28;20536;-67
2021/07/21 02:33:06;;;;;;;14.00;12.50;;;18.60;99.90;;;;;;6261230;28;20475;-67
2021/07/21 02:36:09;;;;;;;13.03;11.67;;;18.60;99.90;;;;;;6260959;28;20794;-67
2021/07/21 02:39:12;;;;;;;13.53;11.57;;;18.70;99.90;;;;;;6261414;28;20231;-67
2021/07/21 02:42:16;;;;;;;14.87;12.33;;;18.70;99.90;;;;;;6260899;28;20227;-67
2021/07/21 02:45:21;;;;;;;16.00;13.50;;;18.70;99.90;;;;;;6261025;28;20485;-66
2021/07/21 02:48:24;;;;;;;13.03;11.70;;;18.60;99.90;;;;;;6259415;28;20469;-67
2021/07/21 02:51:33;;;;;;;14.07;12.30;;;18.70;99.90;;;;;;6261065;28;20467;-66
2021/07/21 02:54:43;;;;;;;12.33;11.13;;;18.70;99.90;;;;;;6260484;28;20224;-66
2021/07/21 02:57:51;;;;;;;13.83;12.50;;;18.50;99.90;;;;;;6260987;28;20463;-66
2021/07/21 03:00:57;;;;;;;13.83;12.43;;;18.50;99.90;;;;;;6254398;28;20471;-66
2021/07/21 03:04:02;;;;;;;16.23;12.20;;;18.50;99.90;;;;;;6249153;28;20478;-66
2021/07/21 03:07:07;;;;;;;14.33;12.50;;;18.50;99.90;;;;;;6252551;28;20467;-66
2021/07/21 03:10:14;;;;;;;12.50;11.20;;;18.50;99.90;;;;;;6254678;28;20470;-65
2021/07/21 03:13:20;;;;;;;12.57;11.27;;;18.40;99.90;;;;;;6253701;28;20482;-65
2021/07/21 03:16:28;;;;;;;14.30;12.80;;;18.40;99.90;;;;;;6253749;28;20494;-66
2021/07/21 03:19:32;;;;;;;15.07;11.87;;;18.30;99.90;;;;;;6253727;28;20471;-65
2021/07/21 03:22:38;;;;;;;13.17;11.30;;;18.30;99.90;;;;;;6253870;28;20490;-65
2021/07/21 03:25:43;;;;;;;15.70;12.40;;;18.20;99.90;;;;;;6253811;28;20474;-66
2021/07/21 03:28:48;;;;;;;13.53;11.80;;;18.20;99.90;;;;;;6248779;28;20505;-66
2021/07/21 03:31:54;;;;;;;14.50;12.00;;;18.20;99.90;;;;;;6253337;28;20474;-66
2021/07/21 03:34:58;;;;;;;13.77;11.70;;;18.20;99.90;;;;;;6253233;28;20487;-66
2021/07/21 03:38:02;;;;;;;13.07;11.77;;;18.20;99.90;;;;;;6253179;28;20478;-66
2021/07/21 03:41:05;;;;;;;13.60;12.27;;;18.20;99.90;;;;;;6253080;28;20489;-66
2021/07/21 03:44:12;;;;;;;13.60;12.20;;;18.20;99.90;;;;;;6252960;28;20486;-65
2021/07/21 03:47:17;;;;;;;13.93;12.13;;;18.10;99.90;;;;;;6277424;28;20481;-65
2021/07/21 03:50:21;;;;;;;13.63;12.23;;;18.10;99.90;;;;;;6278451;28;20438;-65
2021/07/21 03:53:25;;;;;;;13.13;11.73;;;18.10;99.90;;;;;;6277723;28;20458;-65
2021/07/21 03:56:30;;;;;;;13.50;12.10;;;18.10;99.90;;;;;;6277650;28;20750;-66
2021/07/21 03:59:36;;;;;;;14.10;12.70;;;18.20;99.90;;;;;;6277227;28;20844;-65
2021/07/21 04:02:41;;;;;;;14.23;11.67;;;18.20;99.90;;;;;;6277654;28;20475;-65
2021/07/21 04:05:47;;;;;;;13.40;12.00;;;18.20;99.90;;;;;;6277369;28;20469;-65
2021/07/21 04:08:51;;;;;;;13.20;11.90;;;18.20;99.90;;;;;;6277881;28;20470;-65
2021/07/21 04:11:58;;;;;;;15.23;10.93;;;18.20;99.90;;;;;;6277108;28;20477;-65
2021/07/21 04:15:02;;;;;;;14.40;12.20;;;18.20;99.90;;;;;;6277503;28;20519;-66
2021/07/21 04:18:07;;;;;;;16.67;13.17;;;18.20;99.90;;;;;;6275827;28;20469;-66
2021/07/21 04:21:10;;;;;;;14.00;10.80;;;18.30;99.90;;;;;;6276956;28;20988;-66
2021/07/21 04:24:14;;;;;;;13.87;12.47;;;18.30;99.90;;;;;;6276928;28;20914;-66
2021/07/21 04:27:18;;;;;;;12.80;11.53;;;18.30;99.90;;;;;;6277020;28;20481;-67
2021/07/21 04:30:22;;;;;;;13.23;11.50;;;18.40;99.90;;;;;;6277160;28;20466;-65
2021/07/21 04:33:27;;;;;;;14.00;12.30;;;18.50;99.90;;;;;;6277383;28;20236;-66
2021/07/21 04:36:30;;;;;;;13.17;11.77;;;18.60;99.90;;;;;;6277363;28;20466;-66
2021/07/21 04:39:35;;;;;;;14.87;11.80;;;18.70;99.90;;;;;;6276557;28;20850;-67
2021/07/21 04:42:38;;;;;;;16.50;12.53;;;18.70;99.90;;;;;;6276312;28;20474;-65
2021/07/21 04:45:45;;;;;;;13.83;11.37;;;18.70;99.90;;;;;;6276090;28;21012;-65
2021/07/21 04:48:50;;;;;;;15.07;12.97;;;18.80;99.90;;;;;;6276455;28;20231;-67
2021/07/21 04:51:56;;;;;;;14.77;12.20;;;19.00;99.90;;;;;;6276872;28;20469;-66
2021/07/21 04:55:00;;;;;;;16.53;13.47;;;19.00;99.90;;;;;;6276512;28;20228;-66
2021/07/21 04:58:03;;;;;;;14.27;12.77;;;19.10;99.90;;;;;;6292762;28;20245;-66
2021/07/21 05:01:06;;;;;;;17.60;13.13;;;19.20;99.90;;;;;;6301395;28;20238;-66
2021/07/21 05:04:11;;;;;;;13.63;11.80;;;19.30;99.90;;;;;;6300693;28;20465;-67
2021/07/21 05:07:16;;;;;;;13.80;12.33;;;19.40;99.90;;;;;;6300876;28;20223;-66
2021/07/21 05:10:19;;;;;;;16.10;13.93;;;19.50;99.90;;;;;;6300954;28;20226;-65
2021/07/21 05:13:22;;;;;;;13.90;12.10;;;19.60;99.90;;;;;;6300467;28;20707;-65
2021/07/21 05:16:26;;;;;;;14.50;13.07;;;19.70;99.60;;;;;;6300416;28;20249;-65
2021/07/21 05:19:31;;;;;;;18.17;13.60;;;19.90;99.60;;;;;;6300526;28;20238;-66
2021/07/21 05:22:34;;;;;;;16.20;12.70;;;20.00;99.30;;;;;;6300154;28;20281;-66
2021/07/21 05:25:38;;;;;;;14.50;12.03;;;20.20;99.00;;;;;;6300283;28;20226;-66
2021/07/21 05:28:42;;;;;;;14.50;12.43;;;20.30;98.70;;;;;;6299864;28;20231;-66
2021/07/21 05:31:45;;;;;;;14.20;12.50;;;20.50;98.50;;;;;;6299849;28;20230;-67
2021/07/21 05:34:50;;;;;;;17.63;13.73;;;20.60;98.20;;;;;;6300071;28;20244;-67
2021/07/21 05:37:53;;;;;;;16.30;13.77;;;20.70;98.10;;;;;;6294968;28;20245;-67
2021/07/21 05:40:56;;;;;;;16.60;12.73;;;20.80;97.70;;;;;;6299925;28;20230;-58
2021/07/21 05:43:59;;;;;;;15.10;13.03;;;20.90;97.30;;;;;;6299483;28;20237;-58
2021/07/21 05:47:03;;;;;;;15.93;12.50;;;20.90;96.90;;;;;;6299587;28;20552;-58
2021/07/21 05:50:09;;;;;;;14.27;12.77;;;21.00;96.90;;;;;;6299378;28;20222;-59
2021/07/21 05:53:12;;;;;;;14.17;12.67;;;21.00;96.70;;;;;;6299770;28;20238;-57
2021/07/21 05:56:17;;;;;;;14.27;12.80;;;21.20;96.70;;;;;;6299578;28;20218;-59
2021/07/21 05:59:20;;;;;;;14.03;12.63;;;21.30;96.10;;;;;;6299588;28;20207;-65
2021/07/21 06:02:23;;;;;;;16.50;13.10;;;21.50;96.10;;;;;;6299321;28;20246;-60
2021/07/21 06:05:29;;;;;;;15.50;13.17;;;21.90;95.70;;;;;;6299394;28;20558;-60
2021/07/21 06:08:33;;;;;;;14.10;12.60;;;22.20;94.90;;;;;;6299412;28;20195;-60
2021/07/21 06:11:36;;;;;;;15.23;13.17;;;22.60;93.70;;;;;;6299463;28;20226;-60
2021/07/21 06:14:39;;;;;;;13.27;11.90;;;22.90;92.70;;;;;;6299363;28;20233;-60
2021/07/21 06:17:44;;;;;;;19.40;13.90;;;23.40;92.40;;;;;;6299020;28;20560;-60
2021/07/21 06:20:49;;;;;;;15.03;13.50;;;23.80;90.70;;;;;;6299805;28;20223;-60
2021/07/21 06:23:52;;;;;;;15.10;13.13;;;24.40;89.10;;;;;;6298878;28;20223;-60
2021/07/21 06:26:56;;;;;;;14.03;12.60;;;24.70;85.50;;;;;;6299284;28;20218;-60
2021/07/21 06:29:59;;;;;;;14.77;13.13;;;25.00;82.50;;;;;;6298868;28;20260;-60
2021/07/21 06:33:02;;;;;;;13.97;11.93;;;24.80;81.20;;;;;;6299029;28;20660;-61
2021/07/21 06:36:07;;;;;;;15.40;13.83;;;25.20;77.80;;;;;;6299152;28;20223;-60
2021/07/21 06:39:10;;;;;;;13.47;12.17;;;25.10;76.50;;;;;;6299220;28;20237;-64
2021/07/21 06:42:13;;;;;;;14.13;12.50;;;25.30;73.10;;;;;;6298397;28;20235;-64
2021/07/21 06:45:17;;;;;;;12.93;11.63;;;26.00;70.00;;;;;;6298526;28;20687;-64
2021/07/21 06:48:20;;;;;;;13.90;12.13;;;26.60;66.70;;;;;;6298752;28;20701;-65
2021/07/21 06:51:25;;;;;;;14.80;13.40;;;27.00;66.60;;;;;;6298901;28;20226;-65
2021/07/21 06:54:28;;;;;;;14.50;13.20;;;27.70;64.30;;;;;;6298688;28;20260;-65
2021/07/21 06:57:32;;;;;;;13.27;11.93;;;27.90;61.90;;;;;;6299020;28;20241;-66
2021/07/21 07:00:35;;;;;;;12.63;11.33;;;28.40;59.70;;;;;;6298854;28;20240;-65
2021/07/21 07:03:38;;;;;;;12.60;11.40;;;29.10;57.50;;;;;;6298528;28;20316;-65
2021/07/21 07:06:43;;;;;;;13.00;11.80;;;30.00;55.40;;;;;;6298816;28;20234;-65
2021/07/21 07:09:46;;;;;;;14.00;12.70;;;30.40;53.90;;;;;;6298726;28;20234;-65
2021/07/21 07:12:50;;;;;;;13.60;12.30;;;29.70;53.90;;;;;;6298599;28;20234;-65
2021/07/21 07:15:55;;;;;;;13.30;12.00;;;30.20;52.50;;;;;;6298197;28;20222;-64
2021/07/21 07:18:58;;;;;;;12.90;11.60;;;30.50;52.20;;;;;;6298617;28;20671;-65
2021/07/21 07:22:03;;;;;;;13.90;12.52;;;31.50;51.00;;;;;;6298915;28;20234;-64
2021/07/21 07:25:07;;;;;;;13.27;12.00;;;31.70;49.50;;;;;;6298565;28;20230;-65
2021/07/21 07:28:11;;;;;;;13.88;12.48;;;32.30;48.40;;;;;;6298398;28;20234;-64
2021/07/21 07:31:14;;;;;;;13.95;12.52;;;32.70;47.10;;;;;;6298276;28;20560;-64
2021/07/21 07:34:17;;;;;;;15.70;12.98;;;33.50;45.70;;;;;;6298273;28;20230;-64
2021/07/21 07:37:22;;;;;;;13.32;12.00;;;33.10;44.60;;;;;;6298216;28;20734;-66
2021/07/21 07:40:25;;;;;;;14.80;13.45;;;33.20;45.00;;;;;;6298277;28;20234;-64
2021/07/21 07:43:28;;;;;;;17.15;13.15;;;34.00;43.40;;;;;;6298131;28;20594;-64
2021/07/21 07:46:32;;;;;;;15.55;13.88;;;34.00;43.10;;;;;;6293220;28;20253;-65
2021/07/21 07:49:35;;;;;;;13.65;12.45;;;34.30;42.80;;;;;;6297974;28;20233;-64
2021/07/21 07:52:40;;;;;;;14.50;13.20;;;34.30;43.10;;;;;;6300327;28;20248;-64
2021/07/21 07:55:44;;;;;;;12.32;11.23;;;35.20;41.50;;;;;;6302289;28;20706;-64
2021/07/21 07:58:47;;;;;;;13.38;12.15;;;36.00;40.00;;;;;;6302361;28;20695;-66
2021/07/21 08:01:50;;;;;;;14.23;12.93;;;36.90;38.10;;;;;;6295016;28;20226;-67
2021/07/21 08:04:54;;;;;;;13.75;12.55;;;36.80;37.60;;;;;;6283809;28;20609;-66
2021/07/21 08:08:00;;;;;;;14.07;12.55;;;36.10;37.80;;;;;;6302277;28;20280;-66
2021/07/21 08:11:05;;;;;;;15.50;14.07;;;36.70;38.30;;;;;;6278571;28;20223;-67
2021/07/21 08:14:08;;;;;;;14.20;12.90;;;36.70;37.40;;;;;;6276708;28;20636;-67
2021/07/21 08:17:11;;;;;;;13.75;12.55;;;36.80;36.90;;;;;;6277256;28;20229;-61
2021/07/21 08:20:14;;;;;;;14.95;13.63;;;36.30;36.70;;;;;;6254805;28;20600;-65
2021/07/21 08:23:19;;;;;;;14.75;13.35;;;35.40;36.90;;;;;;6276713;28;20226;-62
2021/07/21 08:26:22;;;;;;;14.45;13.05;;;34.40;38.00;;;;;;6252238;28;20211;-64
2021/07/21 08:29:25;;;;;;;13.40;11.75;;;34.10;38.90;;;;;;6251807;28;20208;-63
2021/07/21 08:32:28;;;;;;;14.07;12.77;;;33.50;39.40;;;;;;6251581;28;20227;-63
2021/07/21 08:35:32;;;;;;;16.02;13.63;;;32.90;40.90;;;;;;6259070;28;20202;-64
2021/07/21 08:38:37;;;;;;;14.65;13.25;;;32.50;41.60;;;;;;6276320;28;20308;-69
2021/07/21 08:41:40;;;;;;;14.55;13.10;;;32.20;42.20;;;;;;6276654;28;20238;-69
2021/07/21 08:44:44;;;;;;;13.60;12.45;;;31.20;43.40;;;;;;6275867;28;20222;-66
2021/07/21 08:47:47;;;;;;;13.60;12.30;;;30.70;44.70;;;;;;6276629;28;20222;-67
2021/07/21 08:50:50;;;;;;;15.77;12.15;;;30.50;45.80;;;;;;6276061;28;20219;-64
2021/07/21 08:53:56;;;;;;;15.73;14.02;;;30.30;46.10;;;;;;6278724;28;20226;-67
2021/07/21 08:56:59;;;;;;;15.77;13.68;;;30.10;46.90;;;;;;6297955;28;20226;-66
2021/07/21 09:00:07;;;;;;;14.03;12.80;;;29.80;48.10;;;;;;6300377;28;20675;-66
2021/07/21 09:03:11;;;;;;;15.80;14.30;;;29.30;50.30;;;;;;6292096;28;20254;-63
2021/07/21 09:06:15;;;;;;;15.90;14.20;;;29.00;49.30;;;;;;6275657;28;20227;-61
2021/07/21 09:09:19;;;;;;;14.43;13.10;;;28.80;50.30;;;;;;6275819;28;20226;-64
2021/07/21 09:12:23;;;;;;;15.43;13.83;;;28.50;50.60;;;;;;6275716;28;20242;-62
2021/07/21 09:15:26;;;;;;;14.63;13.23;;;28.30;50.80;;;;;;6275772;28;20227;-65
2021/07/21 09:18:31;;;;;;;14.43;12.93;;;28.00;52.00;;;;;;6275499;28;20695;-64
2021/07/21 09:21:34;;;;;;;14.73;13.33;;;27.90;52.10;;;;;;6275785;28;20292;-64
2021/07/21 09:24:39;;;;;;;14.77;12.70;;;28.10;52.30;;;;;;6275105;28;20959;-62
2021/07/21 09:27:44;;;;;;;14.53;13.13;;;28.10;52.30;;;;;;6275260;28;20231;-66
2021/07/21 09:30:48;;;;;;;13.70;12.50;;;28.10;52.10;;;;;;6275214;28;20234;-64
2021/07/21 09:33:51;;;;;;;13.40;12.20;;;28.30;51.80;;;;;;6275664;28;20238;-65
2021/07/21 09:37:01;;;;;;;14.67;13.07;;;28.40;51.10;;;;;;6275003;28;20572;-68
2021/07/21 09:40:07;;;;;;;15.33;13.87;;;28.40;51.50;;;;;;6278997;28;20280;-68
2021/07/21 09:43:12;;;;;;;14.80;13.30;;;28.50;51.20;;;;;;6276327;28;20235;-68
2021/07/21 09:46:16;;;;;;;14.77;13.00;;;28.40;51.20;;;;;;6273335;28;20231;-67
2021/07/21 09:49:20;;;;;;;14.70;13.27;;;28.30;52.10;;;;;;6271670;28;20544;-68
2021/07/21 09:52:25;;;;;;;14.33;12.93;;;28.20;52.00;;;;;;6271495;28;20316;-67
2021/07/21 09:55:30;;;;;;;13.70;12.40;;;28.30;52.30;;;;;;6287971;28;20223;-67
2021/07/21 09:58:35;;;;;;;13.07;11.70;;;28.20;53.10;;;;;;6266348;28;20231;-67
2021/07/21 10:01:38;;;;;;;13.80;12.40;;;27.70;53.40;;;;;;6269943;28;20219;-67
2021/07/21 10:04:45;;;;;;;14.33;12.93;;;27.70;53.40;;;;;;6273409;28;20233;-67
2021/07/21 10:07:51;;;;;;;14.43;12.93;;;27.60;53.70;;;;;;6274320;28;20215;-68
2021/07/21 10:10:57;;;;;;;16.40;14.43;;;27.60;53.70;;;;;;6271081;28;20234;-68
2021/07/21 10:14:13;;;;;;;16.20;12.97;;;27.80;54.60;;;;;;6273502;28;20281;-68
2021/07/21 10:17:18;;;;;;;14.80;12.50;;;27.90;54.00;;;;;;6273090;28;20211;-66
2021/07/21 10:20:21;;;;;;;16.77;14.33;;;27.90;54.00;;;;;;6299578;28;20198;-65
2021/07/21 10:23:26;;;;;;;13.80;12.50;;;27.90;53.70;;;;;;6299114;28;20232;-66
2021/07/21 10:26:31;;;;;;;15.47;13.97;;;28.00;54.20;;;;;;6299138;28;20577;-66
2021/07/21 10:29:34;;;;;;;14.80;12.97;;;28.00;53.90;;;;;;6298376;28;20557;-67
2021/07/21 10:32:38;;;;;;;14.93;13.40;;;28.00;53.20;;;;;;6299432;28;20226;-69
2021/07/21 10:35:45;;;;;;;14.57;13.30;;;28.00;53.60;;;;;;6298719;28;20568;-68
2021/07/21 10:38:48;;;;;;;15.23;13.73;;;28.10;54.50;;;;;;6299309;28;20222;-67
2021/07/21 10:41:55;;;;;;;14.40;13.10;;;28.20;54.70;;;;;;6298708;28;20315;-67
2021/07/21 10:45:13;;;;;;;15.97;13.57;;;28.30;55.00;;;;;;6298831;28;20226;-67
2021/07/21 10:48:22;;;;;;;14.67;13.17;;;28.30;54.30;;;;;;6298703;28;20635;-67
2021/07/21 10:51:36;;;;;;;14.63;13.23;;;28.30;54.70;;;;;;6298998;28;20218;-67
2021/07/21 10:54:52;;;;;;;14.07;12.77;;;28.20;54.90;;;;;;6298933;28;20231;-67
2021/07/21 11:01:31;;;;;;;14.40;13.03;;;28.00;55.40;;;;;;6301037;28;20253;-68
2021/07/21 11:04:45;;;;;;;13.93;12.50;;;28.30;55.10;;;;;;6282209;28;20231;-67
2021/07/21 11:07:53;;;;;;;15.13;13.80;;;28.60;54.30;;;;;;6274841;28;20242;-68
2021/07/21 11:11:04;;;;;;;16.80;14.07;;;28.50;54.30;;;;;;6273663;28;20304;-67
2021/07/21 11:14:11;;;;;;;15.57;14.07;;;28.20;55.00;;;;;;6273928;28;20231;-67
2021/07/21 11:17:14;;;;;;;15.63;14.13;;;28.30;55.70;;;;;;6294744;28;20222;-67
2021/07/21 11:20:52;;;;;;;15.07;13.57;;;28.40;55.60;;;;;;6273310;28;20233;-67
2021/07/21 11:24:05;;;;;;;15.67;13.90;;;28.20;55.50;;;;;;6295447;28;20238;-68
2021/07/21 11:27:08;;;;;;;14.33;12.93;;;27.90;56.30;;;;;;6289817;28;20215;-67
2021/07/21 11:30:35;;;;;;;15.27;13.47;;;28.30;56.00;;;;;;6266417;28;20560;-67
2021/07/21 11:34:01;;;;;;;16.17;14.73;;;28.30;55.60;;;;;;6274902;28;20219;-68
2021/07/21 11:37:05;;;;;;;15.77;14.37;;;28.50;56.40;;;;;;6275175;28;20227;-67
2021/07/21 11:40:16;;;;;;;13.93;12.60;;;28.30;55.90;;;;;;6293205;28;20702;-61
2021/07/21 11:43:33;;;;;;;15.07;13.67;;;28.50;56.60;;;;;;6302700;28;20234;-64
2021/07/21 11:46:38;;;;;;;15.10;13.73;;;28.70;55.80;;;;;;6302249;28;20238;-66
2021/07/21 11:49:48;;;;;;;14.30;13.00;;;28.80;55.20;;;;;;6302708;28;20229;-65
2021/07/21 11:52:53;;;;;;;15.30;13.83;;;28.60;55.30;;;;;;6280830;28;20245;-67
2021/07/21 11:56:08;;;;;;;15.67;14.00;;;28.90;55.00;;;;;;6300028;28;20573;-67
2021/07/21 11:59:11;;;;;;;16.00;14.40;;;29.10;53.90;;;;;;6268815;28;20258;-64
2021/07/21 12:02:17;;;;;;;16.00;14.40;;;29.00;52.80;;;;;;6250037;28;20241;-66
2021/07/21 12:05:21;;;;;;;15.57;13.67;;;28.80;53.50;;;;;;6277241;28;20221;-65
2021/07/21 12:08:24;;;;;;;15.33;13.83;;;28.90;54.60;;;;;;6278138;28;20655;-71
2021/07/21 12:11:27;;;;;;;15.30;13.90;;;28.90;54.70;;;;;;6277493;28;20237;-63
2021/07/21 12:14:33;;;;;;;15.60;13.40;;;28.80;54.90;;;;;;6277219;28;20223;-68
2021/07/21 12:17:38;;;;;;;17.03;14.30;;;28.70;55.20;;;;;;6279864;28;21405;-66
2021/07/21 12:20:43;;;;;;;15.23;13.83;;;28.50;56.10;;;;;;6301745;28;20609;-70
2021/07/21 12:23:56;;;;;;;14.97;13.47;;;28.60;56.10;;;;;;6302122;28;20226;-65
2021/07/21 12:26:59;;;;;;;13.43;12.03;;;28.90;55.30;;;;;;6301530;28;20687;-64
2021/07/21 12:30:09;;;;;;;15.37;12.90;;;29.10;54.40;;;;;;6301500;28;20539;-68
2021/07/21 12:33:13;;;;;;;15.47;14.00;;;29.20;53.90;;;;;;6285335;28;20246;-65
2021/07/21 12:36:16;;;;;;;15.17;13.80;;;28.80;54.20;;;;;;6268073;28;20561;-69
2021/07/21 12:39:25;;;;;;;15.50;13.17;;;29.00;54.30;;;;;;6275491;28;20226;-62
2021/07/21 12:42:30;;;;;;;14.97;13.70;;;29.00;54.40;;;;;;6276702;28;20561;-67
2021/07/21 12:45:34;;;;;;;16.60;14.90;;;29.20;54.70;;;;;;6275906;28;20250;-63
2021/07/21 12:48:38;;;;;;;14.00;12.70;;;29.10;53.80;;;;;;6276645;28;20242;-63
2021/07/21 12:51:45;;;;;;;14.33;12.93;;;28.70;54.50;;;;;;6275989;28;20723;-69
2021/07/21 12:54:51;;;;;;;16.53;14.83;;;28.80;54.90;;;;;;6276283;28;20237;-69
2021/07/21 12:57:59;;;;;;;14.87;13.47;;;29.10;54.70;;;;;;6275608;28;20235;-64
2021/07/21 13:01:03;;;;;;;14.83;13.40;;;29.00;54.50;;;;;;6276075;28;20234;-65
2021/07/21 13:04:07;;;;;;;15.20;13.60;;;29.00;54.50;;;;;;6275369;28;20647;-68
2021/07/21 13:07:10;;;;;;;14.63;13.33;;;29.10;54.30;;;;;;6262027;28;20246;-68
2021/07/21 13:10:20;;;;;;;15.07;13.67;;;29.00;54.10;;;;;;6275627;28;20233;-66
2021/07/21 13:13:25;;;;;;;14.80;13.33;;;29.10;54.10;;;;;;6275666;28;20239;-68
2021/07/21 13:16:30;;;;;;;15.83;13.87;;;29.20;54.20;;;;;;6275517;28;20227;-64
2021/07/21 13:19:34;;;;;;;15.70;14.27;;;29.40;54.40;;;;;;6275706;28;20231;-65
2021/07/21 13:22:38;;;;;;;15.03;13.60;;;29.40;54.50;;;;;;6275514;28;20243;-67
2021/07/21 13:25:41;;;;;;;14.53;13.13;;;29.40;53.70;;;;;;6275855;28;20227;-66
2021/07/21 13:28:46;;;;;;;16.10;14.60;;;29.20;53.50;;;;;;6275363;28;20231;-65
2021/07/21 13:31:51;;;;;;;14.83;13.43;;;29.10;53.80;;;;;;6275384;28;20571;-66
2021/07/21 13:35:09;;;;;;;16.10;14.23;;;28.80;54.10;;;;;;6275276;28;20237;-66
2021/07/21 13:38:14;;;;;;;14.63;13.20;;;28.80;53.80;;;;;;6275306;28;20324;-69
2021/07/21 13:41:27;;;;;;;15.27;13.70;;;28.90;54.10;;;;;;6275287;28;20222;-69
2021/07/21 13:44:32;;;;;;;15.47;13.83;;;29.10;53.80;;;;;;6297786;28;20218;-66
2021/07/21 13:47:39;;;;;;;14.33;13.13;;;29.00;53.50;;;;;;6274592;28;20249;-65
2021/07/21 13:50:44;;;;;;;16.30;14.77;;;29.20;53.50;;;;;;6274864;28;20227;-66
2021/07/21 13:53:47;;;;;;;14.83;13.40;;;29.30;53.50;;;;;;6275229;28;20242;-65
2021/07/21 13:56:52;;;;;;;15.20;13.70;;;29.30;53.60;;;;;;6274448;28;20569;-67
2021/07/21 13:59:56;;;;;;;15.17;13.60;;;29.00;54.50;;;;;;6275246;28;20231;-67
2021/07/21 14:03:00;;;;;;;17.13;14.43;;;28.90;54.50;;;;;;6274251;28;20334;-66
2021/07/21 14:06:05;;;;;;;14.23;12.83;;;28.90;55.00;;;;;;6275032;28;20344;-68
2021/07/21 14:09:11;;;;;;;14.33;13.03;;;28.80;54.80;;;;;;6265093;28;20536;-66
2021/07/21 14:12:15;;;;;;;15.47;13.97;;;28.40;55.50;;;;;;6274620;28;20241;-67
2021/07/21 14:15:20;;;;;;;14.80;13.50;;;28.30;56.10;;;;;;6282567;28;20746;-66
2021/07/21 14:18:23;;;;;;;14.13;12.83;;;27.80;57.50;;;;;;6290389;28;20230;-68
2021/07/21 14:21:27;;;;;;;18.70;13.07;;;27.60;58.00;;;;;;6273986;28;20222;-66
2021/07/21 14:24:31;;;;;;;14.30;12.90;;;27.30;58.10;;;;;;6274420;28;20237;-66
2021/07/21 14:27:34;;;;;;;15.50;13.33;;;27.30;58.30;;;;;;6273930;28;20235;-67
2021/07/21 14:30:38;;;;;;;14.30;12.90;;;27.40;58.30;;;;;;6274062;28;20238;-65
2021/07/21 14:33:41;;;;;;;13.70;12.30;;;27.50;57.80;;;;;;6274141;28;20234;-68
2021/07/21 14:36:49;;;;;;;15.27;13.87;;;27.50;57.60;;;;;;6273858;28;20575;-65
2021/07/21 14:39:53;;;;;;;14.20;12.90;;;27.60;57.40;;;;;;6274124;28;20231;-66
2021/07/21 14:42:56;;;;;;;14.67;13.27;;;27.40;58.00;;;;;;6273392;28;20257;-69
2021/07/21 14:45:59;;;;;;;12.83;11.73;;;27.70;57.80;;;;;;6273797;28;20683;-63
2021/07/21 14:49:04;;;;;;;15.37;13.87;;;27.90;57.60;;;;;;6273634;28;20576;-67
2021/07/21 14:52:09;;;;;;;15.33;13.10;;;28.00;56.90;;;;;;6271371;28;20663;-70
2021/07/21 14:55:13;;;;;;;15.03;13.23;;;28.00;57.10;;;;;;6268438;28;20242;-65
2021/07/21 14:58:16;;;;;;;15.77;13.20;;;28.00;57.30;;;;;;6273414;28;20230;-65
2021/07/21 15:01:19;;;;;;;13.83;12.60;;;27.90;57.30;;;;;;6273621;28;20231;-64
2021/07/21 15:04:23;;;;;;;13.50;12.30;;;27.70;57.40;;;;;;6278529;28;20710;-66
2021/07/21 15:07:27;;;;;;;14.57;13.07;;;27.20;58.40;;;;;;6278288;28;20238;-64
2021/07/21 15:10:31;;;;;;;16.00;14.20;;;26.90;59.10;;;;;;6278514;28;20226;-64
2021/07/21 15:13:34;;;;;;;14.37;13.00;;;26.90;58.50;;;;;;6268741;28;20296;-63
2021/07/21 15:16:37;;;;;;;13.87;12.57;;;26.80;58.90;;;;;;6278370;28;20227;-63
2021/07/21 15:19:43;;;;;;;13.93;12.60;;;27.00;59.20;;;;;;6278187;28;20257;-63
2021/07/21 15:22:47;;;;;;;15.00;13.70;;;27.20;58.50;;;;;;6278543;28;20241;-63
2021/07/21 15:25:52;;;;;;;13.47;12.23;;;27.50;58.30;;;;;;6278240;28;20219;-63
2021/07/21 15:28:55;;;;;;;14.67;13.17;;;27.60;57.50;;;;;;6277974;28;20230;-63
2021/07/21 15:31:58;;;;;;;14.00;12.60;;;27.70;57.20;;;;;;6278203;28;20235;-58
2021/07/21 15:35:02;;;;;;;14.67;13.37;;;27.60;57.20;;;;;;6277868;28;20222;-58
2021/07/21 15:38:06;;;;;;;13.37;12.17;;;27.50;57.60;;;;;;6277830;28;20234;-59
2021/07/21 15:41:10;;;;;;;14.10;12.60;;;27.60;57.40;;;;;;6276734;28;20223;-58
2021/07/21 15:44:13;;;;;;;13.87;12.57;;;27.80;57.00;;;;;;6285933;28;20551;-58
2021/07/21 15:47:16;;;;;;;14.77;13.40;;;28.00;57.30;;;;;;6286333;28;20715;-58
2021/07/21 15:50:19;;;;;;;14.33;13.10;;;28.10;56.80;;;;;;6284499;28;20561;-63